createdAt,value
2017-07-31T00:00:54.808Z,78.80
2017-07-31T00:03:25.104Z,79.20
2017-07-31T00:05:54.886Z,79.10
2017-07-31T00:08:24.646Z,80.00
2017-07-31T00:10:54.371Z,79.50
2017-07-31T00:13:23.847Z,79.60
2017-07-31T00:15:54.094Z,79.50
2017-07-31T00:18:24.128Z,80.00
2017-07-31T00:20:53.775Z,80.10
2017-07-31T00:23:24.034Z,80.00
2017-07-31T00:25:53.998Z,79.60
2017-07-31T00:28:23.923Z,80.20
2017-07-31T00:30:53.834Z,80.50
2017-07-31T00:33:24.118Z,80.90
2017-07-31T00:35:54.523Z,81.70
2017-07-31T00:38:25.327Z,84.00
2017-07-31T00:40:55.209Z,83.90
2017-07-31T00:43:25.114Z,84.40
2017-07-31T00:45:55.235Z,85.00
2017-07-31T00:48:25.694Z,84.20
2017-07-31T00:50:55.554Z,84.50
2017-07-31T00:53:25.479Z,85.30
2017-07-31T00:55:55.950Z,84.80
2017-07-31T00:58:25.823Z,85.00
2017-07-31T01:00:55.626Z,84.90
2017-07-31T01:03:25.178Z,85.50
2017-07-31T01:05:55.307Z,84.90
2017-07-31T01:08:25.735Z,84.40
2017-07-31T01:10:55.471Z,84.90
2017-07-31T01:13:25.374Z,85.20
2017-07-31T01:15:55.947Z,83.60
2017-07-31T01:18:25.890Z,82.50
2017-07-31T01:20:55.860Z,82.20
2017-07-31T01:23:25.973Z,84.30
2017-07-31T01:25:56.308Z,84.90
2017-07-31T01:28:26.797Z,84.70
2017-07-31T01:30:56.744Z,85.90
2017-07-31T01:33:27.654Z,85.40
2017-07-31T01:35:58.058Z,85.40
2017-07-31T01:38:27.951Z,86.30
2017-07-31T01:40:58.090Z,86.10
2017-07-31T01:43:27.955Z,86.10
2017-07-31T01:45:58.514Z,83.70
2017-07-31T01:48:29.362Z,83.60
2017-07-31T01:50:59.240Z,84.30
2017-07-31T01:53:29.142Z,83.90
2017-07-31T01:55:59.546Z,84.40
2017-07-31T01:58:29.086Z,85.60
2017-07-31T02:01:00.011Z,86.10
2017-07-31T02:03:29.982Z,85.40
2017-07-31T02:05:59.843Z,84.90
2017-07-31T02:08:30.211Z,85.10
2017-07-31T02:11:00.348Z,83.80
2017-07-31T02:13:30.031Z,83.60
2017-07-31T02:16:00.119Z,84.20
2017-07-31T02:18:30.059Z,82.80
2017-07-31T02:21:00.544Z,82.10
2017-07-31T02:23:30.822Z,82.00
2017-07-31T02:26:03.117Z,83.00
2017-07-31T02:28:33.381Z,84.70
2017-07-31T02:31:04.342Z,84.60
2017-07-31T02:33:34.066Z,84.30
2017-07-31T02:36:04.004Z,85.00
2017-07-31T02:38:33.562Z,84.90
2017-07-31T02:41:07.193Z,85.70
2017-07-31T02:43:41.467Z,86.30
2017-07-31T02:46:12.427Z,85.00
2017-07-31T02:48:41.972Z,85.20
2017-07-31T02:51:11.965Z,85.00
2017-07-31T02:53:42.653Z,84.30
2017-07-31T02:56:12.493Z,84.80
2017-07-31T02:58:42.394Z,84.60
2017-07-31T03:01:12.820Z,86.00
2017-07-31T03:03:42.482Z,84.70
2017-07-31T03:06:12.736Z,84.30
2017-07-31T03:08:44.179Z,84.60
2017-07-31T03:11:13.885Z,84.90
2017-07-31T03:13:43.467Z,85.40
2017-07-31T03:16:12.991Z,85.30
2017-07-31T03:18:42.537Z,84.30
2017-07-31T03:21:12.343Z,83.80
2017-07-31T03:23:42.464Z,83.40
2017-07-31T03:26:12.479Z,82.40
2017-07-31T03:28:43.616Z,82.20
2017-07-31T03:31:13.727Z,82.20
2017-07-31T03:33:43.659Z,82.80
2017-07-31T03:36:13.211Z,82.80
2017-07-31T03:38:42.755Z,83.20
2017-07-31T03:41:12.564Z,83.50
2017-07-31T03:43:42.111Z,83.50
2017-07-31T03:46:11.662Z,83.80
2017-07-31T03:48:41.188Z,84.00
2017-07-31T03:51:12.486Z,83.90
2017-07-31T03:53:42.977Z,82.80
2017-07-31T03:56:12.706Z,82.40
2017-07-31T03:58:42.729Z,82.10
2017-07-31T04:01:12.274Z,81.70
2017-07-31T04:03:41.815Z,82.60
2017-07-31T04:06:11.674Z,82.80
2017-07-31T04:08:41.882Z,82.50
2017-07-31T04:11:11.442Z,82.30
2017-07-31T04:13:41.454Z,81.40
2017-07-31T04:16:11.382Z,81.20
2017-07-31T04:18:40.935Z,79.60
2017-07-31T04:21:10.751Z,80.20
2017-07-31T04:23:40.759Z,80.30
2017-07-31T04:26:11.581Z,81.60
2017-07-31T04:28:41.651Z,80.80
2017-07-31T04:31:11.266Z,80.40
2017-07-31T04:33:41.753Z,81.30
2017-07-31T04:36:11.383Z,80.80
2017-07-31T04:38:40.943Z,80.90
2017-07-31T04:41:10.515Z,79.70
2017-07-31T04:43:40.041Z,79.00
2017-07-31T04:46:09.914Z,77.90
2017-07-31T04:48:39.521Z,77.70
2017-07-31T04:51:09.077Z,78.90
2017-07-31T04:53:40.341Z,79.10
2017-07-31T04:56:10.012Z,79.20
2017-07-31T04:58:39.544Z,78.70
2017-07-31T05:01:09.114Z,79.50
2017-07-31T05:03:38.724Z,78.00
2017-07-31T05:06:08.583Z,77.40
2017-07-31T05:08:38.418Z,76.70
2017-07-31T05:11:07.914Z,74.80
2017-07-31T05:13:37.515Z,76.00
2017-07-31T05:16:07.055Z,75.60
2017-07-31T05:18:36.931Z,77.40
2017-07-31T05:21:06.500Z,75.10
2017-07-31T05:23:36.254Z,75.90
2017-07-31T05:26:06.165Z,74.70
2017-07-31T05:28:35.995Z,76.70
2017-07-31T05:31:05.568Z,76.00
2017-07-31T05:33:35.147Z,73.70
2017-07-31T05:36:04.681Z,73.10
2017-07-31T05:38:34.483Z,74.10
2017-07-31T05:41:04.024Z,74.00
2017-07-31T05:43:33.608Z,72.60
2017-07-31T05:46:03.488Z,73.00
2017-07-31T05:48:33.526Z,72.10
2017-07-31T05:51:03.438Z,71.60
2017-07-31T05:53:33.361Z,72.20
2017-07-31T05:56:02.931Z,74.20
2017-07-31T05:58:32.804Z,73.40
2017-07-31T06:01:02.348Z,72.40
2017-07-31T06:03:32.142Z,71.70
2017-07-31T06:06:04.776Z,71.10
2017-07-31T06:08:34.651Z,69.60
2017-07-31T06:11:04.741Z,69.80
2017-07-31T06:13:35.027Z,69.40
2017-07-31T06:16:04.595Z,70.50
2017-07-31T06:18:34.196Z,69.80
2017-07-31T06:21:04.113Z,70.00
2017-07-31T06:23:34.077Z,71.10
2017-07-31T06:26:05.507Z,69.70
2017-07-31T06:28:35.006Z,69.20
2017-07-31T06:31:04.604Z,67.70
2017-07-31T06:33:34.318Z,68.80
2017-07-31T06:36:04.373Z,65.10
2017-07-31T06:38:35.859Z,63.30
2017-07-31T06:41:05.620Z,59.30
2017-07-31T06:43:36.326Z,56.30
2017-07-31T06:50:25.432Z,51.90
2017-07-31T06:52:55.974Z,47.20
2017-07-31T06:55:26.988Z,43.20
2017-07-31T06:57:57.250Z,43.10
2017-07-31T07:00:27.441Z,42.00
2017-07-31T07:02:57.847Z,43.40
2017-07-31T07:05:28.100Z,41.60
2017-07-31T07:07:58.501Z,41.40
2017-07-31T07:10:29.476Z,41.60
2017-07-31T07:13:00.236Z,40.60
2017-07-31T07:15:30.658Z,37.70
2017-07-31T07:18:00.931Z,40.20
2017-07-31T07:20:31.086Z,38.40
2017-07-31T07:23:05.378Z,41.00
2017-07-31T07:25:36.162Z,36.80
2017-07-31T07:28:06.423Z,35.80
2017-07-31T07:30:37.354Z,34.30
2017-07-31T07:33:07.364Z,33.40
2017-07-31T07:35:36.988Z,30.90
2017-07-31T07:38:06.724Z,30.00
2017-07-31T07:40:36.830Z,28.00
2017-07-31T07:43:06.650Z,27.80
2017-07-31T07:45:36.354Z,27.20
2017-07-31T07:48:05.888Z,29.90
2017-07-31T07:50:35.452Z,30.00
2017-07-31T07:53:05.014Z,30.90
2017-07-31T07:55:35.299Z,30.70
2017-07-31T07:58:05.287Z,30.90
2017-07-31T08:03:51.133Z,32.40
2017-07-31T08:06:21.507Z,32.90
2017-07-31T08:08:51.932Z,35.00
2017-07-31T08:11:21.750Z,35.40
2017-07-31T08:13:51.489Z,31.20
2017-07-31T08:16:21.551Z,31.40
2017-07-31T08:18:51.756Z,29.40
2017-07-31T08:21:21.682Z,30.90
2017-07-31T08:23:51.506Z,37.10
2017-07-31T08:26:21.026Z,33.10
2017-07-31T08:28:50.796Z,36.30
2017-07-31T08:31:20.844Z,37.20
2017-07-31T08:33:52.483Z,38.90
2017-07-31T08:36:23.499Z,38.50
2017-07-31T08:38:53.341Z,35.40
2017-07-31T08:41:23.606Z,37.80
2017-07-31T08:43:55.002Z,36.10
2017-07-31T08:46:25.470Z,36.70
2017-07-31T08:48:55.048Z,43.20
2017-07-31T08:51:24.904Z,39.60
2017-07-31T08:53:54.464Z,39.00
2017-07-31T08:56:24.197Z,36.30
2017-07-31T08:58:54.297Z,34.90
2017-07-31T09:01:23.937Z,31.90
2017-07-31T09:03:53.515Z,39.40
2017-07-31T09:06:23.589Z,36.20
2017-07-31T09:08:53.685Z,32.20
2017-07-31T09:11:23.775Z,31.00
2017-07-31T09:13:53.504Z,32.00
2017-07-31T09:16:23.111Z,30.90
2017-07-31T09:18:52.672Z,30.40
2017-07-31T09:21:24.950Z,30.10
2017-07-31T09:23:54.826Z,32.80
2017-07-31T09:26:24.332Z,32.90
2017-07-31T09:28:53.954Z,34.50
2017-07-31T09:31:23.776Z,34.10
2017-07-31T09:33:53.411Z,39.50
2017-07-31T09:36:24.659Z,37.60
2017-07-31T09:38:54.230Z,37.10
2017-07-31T09:41:23.923Z,37.30
2017-07-31T09:43:54.335Z,35.60
2017-07-31T09:46:25.667Z,36.10
2017-07-31T09:48:55.615Z,36.50
2017-07-31T09:51:25.443Z,36.40
2017-07-31T09:53:56.199Z,36.10
2017-07-31T09:56:26.160Z,40.90
2017-07-31T09:58:55.707Z,36.50
2017-07-31T10:01:26.670Z,35.10
2017-07-31T10:03:56.687Z,34.20
2017-07-31T10:06:26.324Z,35.00
2017-07-31T10:08:55.958Z,35.00
2017-07-31T10:11:28.794Z,31.50
2017-07-31T10:13:59.150Z,31.60
2017-07-31T10:16:29.255Z,29.60
2017-07-31T10:18:58.861Z,29.20
2017-07-31T10:21:29.340Z,31.60
2017-07-31T10:23:58.898Z,31.30
2017-07-31T10:26:28.423Z,34.50
2017-07-31T10:29:00.612Z,36.60
2017-07-31T10:31:30.283Z,36.10
2017-07-31T10:34:00.953Z,31.30
2017-07-31T10:36:30.646Z,31.30
2017-07-31T10:39:38.070Z,32.80
2017-07-31T10:42:07.795Z,34.60
2017-07-31T10:44:37.386Z,34.80
2017-07-31T10:47:07.312Z,34.60
2017-07-31T10:49:38.194Z,40.10
2017-07-31T10:52:07.714Z,40.10
2017-07-31T10:54:38.196Z,41.30
2017-07-31T10:57:07.861Z,40.70
2017-07-31T10:59:37.736Z,42.10
2017-07-31T11:04:43.018Z,40.50
2017-07-31T11:07:13.076Z,41.20
2017-07-31T11:09:43.394Z,38.70
2017-07-31T11:12:13.275Z,35.80
2017-07-31T11:14:43.041Z,35.40
2017-07-31T11:17:14.093Z,31.70
2017-07-31T11:19:44.482Z,31.10
2017-07-31T11:22:14.199Z,32.50
2017-07-31T11:24:44.099Z,33.40
2017-07-31T11:27:14.887Z,37.90
2017-07-31T11:29:46.376Z,38.60
2017-07-31T11:32:16.816Z,40.40
2017-07-31T11:34:47.052Z,42.60
2017-07-31T11:37:17.038Z,44.00
2017-07-31T11:39:46.935Z,45.00
2017-07-31T11:42:16.537Z,44.80
2017-07-31T11:44:46.350Z,46.10
2017-07-31T11:47:20.105Z,42.60
2017-07-31T11:49:49.868Z,43.60
2017-07-31T11:52:19.898Z,43.30
2017-07-31T11:54:49.616Z,43.20
2017-07-31T11:57:19.639Z,45.20
2017-07-31T11:59:49.209Z,47.20
2017-07-31T12:02:19.615Z,48.10
2017-07-31T12:04:49.654Z,48.30
2017-07-31T12:07:19.464Z,49.10
2017-07-31T12:09:49.082Z,48.00
2017-07-31T12:12:19.029Z,48.20
2017-07-31T12:14:48.522Z,46.90
2017-07-31T12:17:18.046Z,48.90
2017-07-31T12:19:47.747Z,47.10
2017-07-31T12:22:17.286Z,46.50
2017-07-31T12:24:47.057Z,47.90
2017-07-31T12:27:16.592Z,47.30
2017-07-31T12:29:46.607Z,47.40
2017-07-31T12:35:05.045Z,47.40
2017-07-31T12:37:35.007Z,48.30
2017-07-31T12:40:04.558Z,47.20
2017-07-31T12:42:34.111Z,46.60
2017-07-31T12:45:03.679Z,47.40
2017-07-31T12:47:33.444Z,46.40
2017-07-31T12:50:03.371Z,46.60
2017-07-31T12:52:38.498Z,46.60
2017-07-31T12:55:08.863Z,46.60
2017-07-31T12:57:39.171Z,46.40
2017-07-31T13:00:08.754Z,45.90
2017-07-31T13:02:38.420Z,44.80
2017-07-31T13:05:08.743Z,46.00
2017-07-31T13:07:38.550Z,46.30
2017-07-31T13:10:08.066Z,46.60
2017-07-31T13:12:37.938Z,46.80
2017-07-31T13:15:07.530Z,46.50
2017-07-31T13:17:37.036Z,47.20
2017-07-31T13:20:07.597Z,48.00
2017-07-31T13:22:37.169Z,47.10
2017-07-31T13:25:06.763Z,47.50
2017-07-31T13:27:36.884Z,48.00
2017-07-31T13:30:07.064Z,48.50
2017-07-31T13:32:47.973Z,48.20
2017-07-31T13:35:18.253Z,48.10
2017-07-31T13:37:54.418Z,47.20
2017-07-31T13:40:30.174Z,47.70
2017-07-31T13:43:00.022Z,46.90
2017-07-31T13:45:29.955Z,47.40
2017-07-31T13:47:59.468Z,47.10
2017-07-31T13:50:29.414Z,47.90
2017-07-31T13:52:59.292Z,48.20
2017-07-31T13:55:28.826Z,51.10
2017-07-31T13:57:58.411Z,48.30
2017-07-31T14:00:28.380Z,49.50
2017-07-31T14:02:58.098Z,49.90
2017-07-31T14:05:28.016Z,47.80
2017-07-31T14:07:57.719Z,49.00
2017-07-31T14:10:27.346Z,49.00
2017-07-31T14:12:57.807Z,51.00
2017-07-31T14:15:27.374Z,50.00
2017-07-31T14:17:56.945Z,50.20
2017-07-31T14:20:26.759Z,52.00
2017-07-31T14:22:56.255Z,50.10
2017-07-31T14:25:25.812Z,50.90
2017-07-31T14:27:55.924Z,51.30
2017-07-31T14:30:25.491Z,49.30
2017-07-31T14:35:41.227Z,50.20
2017-07-31T14:38:12.105Z,48.10
2017-07-31T14:40:41.680Z,50.80
2017-07-31T14:43:12.590Z,48.40
2017-07-31T14:45:43.111Z,50.60
2017-07-31T14:48:13.579Z,53.30
2017-07-31T14:50:43.230Z,53.00
2017-07-31T14:53:13.114Z,52.50
2017-07-31T14:55:42.652Z,53.50
2017-07-31T14:58:12.217Z,52.60
2017-07-31T15:00:41.841Z,53.10
2017-07-31T15:03:12.718Z,52.30
2017-07-31T15:05:43.681Z,52.20
2017-07-31T15:08:14.256Z,52.70
2017-07-31T15:10:45.115Z,50.30
2017-07-31T15:13:14.862Z,50.80
2017-07-31T15:15:47.176Z,53.10
2017-07-31T15:18:17.878Z,52.40
2017-07-31T15:20:48.977Z,51.80
2017-07-31T15:23:19.002Z,50.20
2017-07-31T15:25:49.586Z,52.50
2017-07-31T15:28:19.210Z,54.40
2017-07-31T15:30:49.672Z,56.00
2017-07-31T15:33:20.655Z,58.70
2017-07-31T15:35:50.321Z,59.40
2017-07-31T15:38:20.408Z,63.80
2017-07-31T15:40:50.508Z,59.50
2017-07-31T15:43:20.122Z,60.80
2017-07-31T15:45:50.131Z,62.50
2017-07-31T15:48:20.119Z,59.20
2017-07-31T15:50:49.757Z,59.80
2017-07-31T15:53:19.529Z,58.40
2017-07-31T15:55:49.544Z,59.10
2017-07-31T15:58:19.535Z,58.20
2017-07-31T16:00:49.063Z,59.10
2017-07-31T16:03:18.679Z,62.80
2017-07-31T16:05:48.380Z,64.40
2017-07-31T16:08:17.975Z,65.90
2017-07-31T16:10:47.792Z,65.60
2017-07-31T16:13:18.085Z,63.00
2017-07-31T16:15:48.374Z,63.40
2017-07-31T16:18:18.719Z,64.40
2017-07-31T16:20:48.484Z,63.20
2017-07-31T16:23:20.021Z,62.10
2017-07-31T16:25:50.737Z,63.10
2017-07-31T16:30:52.933Z,63.80
2017-07-31T16:33:24.139Z,63.80
2017-07-31T16:35:54.716Z,64.60
2017-07-31T16:38:32.769Z,63.70
2017-07-31T16:41:06.744Z,63.20
2017-07-31T16:43:46.067Z,59.40
2017-07-31T16:46:25.318Z,59.80
2017-07-31T16:49:04.529Z,59.50
2017-07-31T16:51:36.912Z,62.30
2017-07-31T16:55:10.855Z,65.20
2017-07-31T16:57:43.016Z,65.70
2017-07-31T17:00:14.673Z,66.00
2017-07-31T17:02:45.802Z,66.00
2017-07-31T17:05:15.964Z,65.90
2017-07-31T17:07:47.951Z,64.70
2017-07-31T17:10:21.101Z,65.60
2017-07-31T17:12:51.905Z,66.40
2017-07-31T17:15:21.516Z,65.70
2017-07-31T17:17:52.722Z,66.30
2017-07-31T17:20:22.328Z,68.50
2017-07-31T17:22:53.020Z,67.70
2017-07-31T17:25:23.791Z,66.70
2017-07-31T17:27:53.368Z,68.00
2017-07-31T17:30:24.892Z,66.80
2017-07-31T17:32:56.861Z,65.00
2017-07-31T17:35:29.314Z,65.80
2017-07-31T17:38:00.932Z,65.70
2017-07-31T17:40:32.454Z,65.70
2017-07-31T17:43:03.134Z,65.90
2017-07-31T17:45:35.055Z,67.10
2017-07-31T17:48:05.873Z,68.10
2017-07-31T17:50:36.686Z,69.60
2017-07-31T17:53:07.262Z,70.10
2017-07-31T17:55:39.107Z,68.90
2017-07-31T17:58:09.955Z,70.10
2017-07-31T18:00:41.974Z,70.50
2017-07-31T18:03:14.065Z,71.20
2017-07-31T18:05:44.541Z,72.00
2017-07-31T18:08:14.947Z,72.90
2017-07-31T18:10:44.654Z,74.10
2017-07-31T18:13:14.847Z,76.00
2017-07-31T18:15:45.063Z,74.70
2017-07-31T18:18:14.722Z,74.80
2017-07-31T18:20:44.499Z,75.20
2017-07-31T18:23:14.544Z,74.90
2017-07-31T18:25:44.199Z,75.20
2017-07-31T18:28:13.988Z,75.10
2017-07-31T18:30:43.725Z,75.50
2017-07-31T18:33:13.722Z,75.20
2017-07-31T18:35:44.022Z,75.80
2017-07-31T18:38:13.795Z,75.90
2017-07-31T18:40:43.608Z,76.10
2017-07-31T18:43:13.717Z,77.20
2017-07-31T18:45:43.577Z,76.60
2017-07-31T18:48:13.342Z,76.70
2017-07-31T18:50:43.130Z,76.40
2017-07-31T18:53:13.081Z,76.60
2017-07-31T18:55:42.780Z,76.90
2017-07-31T18:58:13.512Z,77.20
2017-07-31T19:00:43.697Z,78.10
2017-07-31T19:03:14.387Z,78.20
2017-07-31T19:05:44.102Z,78.30
2017-07-31T19:08:13.968Z,78.50
2017-07-31T19:10:44.103Z,78.80
2017-07-31T19:13:13.937Z,79.00
2017-07-31T19:15:43.633Z,79.80
2017-07-31T19:18:13.737Z,80.20
2017-07-31T19:20:43.495Z,80.30
2017-07-31T19:23:13.270Z,80.60
2017-07-31T19:25:43.066Z,80.80
2017-07-31T19:28:12.815Z,81.30
2017-07-31T19:30:42.519Z,81.90
2017-07-31T19:33:12.423Z,83.10
2017-07-31T19:35:42.212Z,82.80
2017-07-31T19:38:12.382Z,82.40
2017-07-31T19:40:42.000Z,81.80
2017-07-31T19:43:11.801Z,82.00
2017-07-31T19:45:41.783Z,82.20
2017-07-31T19:48:12.081Z,82.20
2017-07-31T19:50:41.954Z,82.80
2017-07-31T19:53:12.384Z,84.20
2017-07-31T19:55:42.130Z,83.80
2017-07-31T20:01:12.662Z,83.80
2017-07-31T20:03:42.559Z,83.20
2017-07-31T20:06:12.335Z,83.40
2017-07-31T20:08:42.383Z,83.50
2017-07-31T20:11:12.077Z,83.50
2017-07-31T20:13:42.194Z,84.10
2017-07-31T20:16:11.955Z,85.20
2017-07-31T20:18:41.736Z,84.30
2017-07-31T20:21:11.419Z,84.00
2017-07-31T20:23:41.507Z,84.40
2017-07-31T20:26:12.156Z,83.50
2017-07-31T20:28:42.286Z,83.90
2017-07-31T20:31:12.515Z,82.40
2017-07-31T20:33:42.491Z,82.20
2017-07-31T20:36:12.141Z,81.80
2017-07-31T20:38:41.964Z,82.00
2017-07-31T20:41:11.605Z,82.80
2017-07-31T20:43:41.231Z,82.80
2017-07-31T20:46:10.788Z,81.60
2017-07-31T20:48:40.878Z,81.40
2017-07-31T20:51:10.653Z,81.20
2017-07-31T20:53:40.235Z,80.90
2017-07-31T20:56:10.026Z,81.40
2017-07-31T20:58:39.663Z,81.60
2017-07-31T21:01:09.846Z,81.80
2017-07-31T21:03:40.729Z,82.80
2017-07-31T21:06:10.488Z,82.80
2017-07-31T21:08:41.602Z,82.10
2017-07-31T21:11:13.281Z,81.70
2017-07-31T21:13:43.935Z,81.60
2017-07-31T21:16:14.446Z,81.10
2017-07-31T21:18:45.164Z,81.40
2017-07-31T21:21:17.851Z,80.20
2017-07-31T21:23:49.206Z,80.20
2017-07-31T21:26:18.837Z,79.60
2017-07-31T21:28:49.322Z,79.80
2017-07-31T21:31:20.012Z,79.60
2017-07-31T21:33:51.390Z,78.90
2017-07-31T21:36:22.109Z,78.50
2017-07-31T21:38:53.314Z,78.20
2017-07-31T21:41:25.250Z,79.00
2017-07-31T21:43:57.323Z,79.60
2017-07-31T21:46:28.092Z,79.40
2017-07-31T21:48:58.129Z,78.90
2017-07-31T21:51:30.627Z,79.60
2017-07-31T21:54:03.142Z,78.40
2017-07-31T21:56:34.735Z,78.20
2017-07-31T21:59:06.695Z,79.50
2017-07-31T22:01:38.282Z,79.50
2017-07-31T22:04:09.246Z,79.40
2017-07-31T22:06:40.538Z,79.20
2017-07-31T22:09:10.807Z,78.70
2017-07-31T22:11:40.835Z,78.60
2017-07-31T22:14:11.692Z,78.80
2017-07-31T22:16:45.526Z,77.80
2017-07-31T22:19:15.369Z,77.60
2017-07-31T22:21:49.071Z,77.50
2017-07-31T22:24:19.727Z,78.00
2017-07-31T22:26:49.973Z,79.00
2017-07-31T22:29:21.181Z,79.70
2017-07-31T22:31:51.993Z,79.90
2017-07-31T22:34:24.153Z,81.20
2017-07-31T22:36:54.043Z,81.10
2017-07-31T22:39:23.933Z,81.70
2017-07-31T22:41:53.641Z,81.40
2017-07-31T22:44:23.594Z,79.70
2017-07-31T22:46:53.311Z,79.30
2017-07-31T22:49:22.953Z,79.20
2017-07-31T22:51:53.609Z,80.30
2017-07-31T22:54:23.683Z,80.40
2017-07-31T22:56:53.555Z,80.10
2017-07-31T22:59:23.809Z,80.00
2017-07-31T23:01:54.073Z,80.60
2017-07-31T23:04:23.984Z,80.80
2017-07-31T23:06:54.658Z,81.00
2017-07-31T23:09:24.896Z,80.60
2017-07-31T23:11:54.648Z,81.40
2017-07-31T23:14:25.142Z,80.10
2017-07-31T23:16:55.147Z,79.80
2017-07-31T23:19:25.117Z,80.60
2017-07-31T23:21:55.201Z,80.90
2017-07-31T23:24:24.944Z,80.40
2017-07-31T23:26:54.632Z,80.30
2017-07-31T23:29:25.431Z,81.00
2017-07-31T23:31:55.288Z,81.70
2017-07-31T23:34:25.416Z,82.20
2017-07-31T23:36:56.121Z,82.70
2017-07-31T23:39:26.334Z,82.70
2017-07-31T23:41:57.051Z,82.50
2017-07-31T23:44:27.178Z,81.90
2017-07-31T23:46:57.227Z,82.30
2017-07-31T23:49:27.763Z,82.00
2017-07-31T23:51:57.758Z,81.70
2017-07-31T23:54:27.969Z,84.10
2017-07-31T23:56:59.229Z,82.80
2017-07-31T23:59:29.417Z,82.80
